sensor_id;sensor_type;location;lat;lon;timestamp;temperature;humidity
40696;DHT22;40425;51.102;17.208;2022-09-09T00:02:36;16.70;99.90
40696;DHT22;40425;51.102;17.208;2022-09-09T00:07:51;16.60;99.90
40696;DHT22;40425;51.102;17.208;2022-09-09T00:13:16;16.60;99.90
40696;DHT22;40425;51.102;17.208;2022-09-09T00:23:45;16.40;99.90
40696;DHT22;40425;51.102;17.208;2022-09-09T00:29:33;16.40;99.90
40696;DHT22;40425;51.102;17.208;2022-09-09T00:34:36;16.30;99.90
40696;DHT22;40425;51.102;17.208;2022-09-09T00:39:45;16.20;99.90
40696;DHT22;40425;51.102;17.208;2022-09-09T00:50:53;16.10;99.90
40696;DHT22;40425;51.102;17.208;2022-09-09T01:11:09;15.90;99.90
40696;DHT22;40425;51.102;17.208;2022-09-09T01:16:11;15.70;99.90
40696;DHT22;40425;51.102;17.208;2022-09-09T01:31:37;15.60;99.90
40696;DHT22;40425;51.102;17.208;2022-09-09T01:37:02;15.70;99.90
40696;DHT22;40425;51.102;17.208;2022-09-09T01:42:06;15.70;99.90
40696;DHT22;40425;51.102;17.208;2022-09-09T01:47:08;15.70;99.90
40696;DHT22;40425;51.102;17.208;2022-09-09T01:52:09;15.50;99.90
40696;DHT22;40425;51.102;17.208;2022-09-09T01:57:30;15.50;99.90
40696;DHT22;40425;51.102;17.208;2022-09-09T02:08:33;15.30;99.90
40696;DHT22;40425;51.102;17.208;2022-09-09T02:13:32;15.30;99.90
40696;DHT22;40425;51.102;17.208;2022-09-09T02:19:08;15.20;99.90
40696;DHT22;40425;51.102;17.208;2022-09-09T02:24:14;15.20;99.90
40696;DHT22;40425;51.102;17.208;2022-09-09T02:29:20;15.20;99.90
40696;DHT22;40425;51.102;17.208;2022-09-09T02:34:23;15.10;99.90
40696;DHT22;40425;51.102;17.208;2022-09-09T02:39:25;15.00;99.90
40696;DHT22;40425;51.102;17.208;2022-09-09T02:44:26;14.90;99.90
40696;DHT22;40425;51.102;17.208;2022-09-09T02:54:35;14.90;99.90
40696;DHT22;40425;51.102;17.208;2022-09-09T02:59:39;14.90;99.90
40696;DHT22;40425;51.102;17.208;2022-09-09T03:04:40;14.90;99.90
40696;DHT22;40425;51.102;17.208;2022-09-09T03:09:43;14.90;99.90
40696;DHT22;40425;51.102;17.208;2022-09-09T03:14:44;14.80;99.90
40696;DHT22;40425;51.102;17.208;2022-09-09T03:19:46;14.60;99.90
40696;DHT22;40425;51.102;17.208;2022-09-09T03:24:51;14.50;99.90
40696;DHT22;40425;51.102;17.208;2022-09-09T03:29:52;14.30;99.90
40696;DHT22;40425;51.102;17.208;2022-09-09T03:34:53;14.40;99.90
40696;DHT22;40425;51.102;17.208;2022-09-09T03:39:54;14.40;99.90
40696;DHT22;40425;51.102;17.208;2022-09-09T03:44:58;14.50;99.90
40696;DHT22;40425;51.102;17.208;2022-09-09T03:50:00;14.50;99.90
40696;DHT22;40425;51.102;17.208;2022-09-09T03:55:01;14.40;99.90
40696;DHT22;40425;51.102;17.208;2022-09-09T04:00:06;14.40;99.90
40696;DHT22;40425;51.102;17.208;2022-09-09T04:05:08;14.40;99.90
40696;DHT22;40425;51.102;17.208;2022-09-09T04:10:10;14.10;99.90
40696;DHT22;40425;51.102;17.208;2022-09-09T04:15:11;13.90;99.90
40696;DHT22;40425;51.102;17.208;2022-09-09T04:20:12;13.90;99.90
40696;DHT22;40425;51.102;17.208;2022-09-09T04:25:13;13.80;99.90
40696;DHT22;40425;51.102;17.208;2022-09-09T04:30:14;13.80;99.90
40696;DHT22;40425;51.102;17.208;2022-09-09T04:35:15;13.70;99.90
40696;DHT22;40425;51.102;17.208;2022-09-09T04:40:19;13.70;99.90
40696;DHT22;40425;51.102;17.208;2022-09-09T04:45:20;13.80;99.90
40696;DHT22;40425;51.102;17.208;2022-09-09T04:50:21;13.80;99.90
40696;DHT22;40425;51.102;17.208;2022-09-09T04:55:22;13.90;99.90
40696;DHT22;40425;51.102;17.208;2022-09-09T05:00:23;14.00;99.90
40696;DHT22;40425;51.102;17.208;2022-09-09T05:05:24;14.10;99.90
40696;DHT22;40425;51.102;17.208;2022-09-09T05:10:26;14.10;99.90
40696;DHT22;40425;51.102;17.208;2022-09-09T05:15:26;14.30;99.90
40696;DHT22;40425;51.102;17.208;2022-09-09T05:20:28;14.40;99.90
40696;DHT22;40425;51.102;17.208;2022-09-09T05:25:29;14.50;99.90
40696;DHT22;40425;51.102;17.208;2022-09-09T05:30:29;14.70;99.90
40696;DHT22;40425;51.102;17.208;2022-09-09T05:35:30;14.80;99.90
40696;DHT22;40425;51.102;17.208;2022-09-09T05:40:31;14.90;99.90
40696;DHT22;40425;51.102;17.208;2022-09-09T05:45:32;15.10;99.90
40696;DHT22;40425;51.102;17.208;2022-09-09T05:50:33;15.20;99.90
40696;DHT22;40425;51.102;17.208;2022-09-09T05:55:34;15.40;99.90
40696;DHT22;40425;51.102;17.208;2022-09-09T06:00:34;15.50;99.90
40696;DHT22;40425;51.102;17.208;2022-09-09T06:05:35;15.60;99.90
40696;DHT22;40425;51.102;17.208;2022-09-09T06:10:36;15.80;99.90
40696;DHT22;40425;51.102;17.208;2022-09-09T06:15:37;15.90;99.90
40696;DHT22;40425;51.102;17.208;2022-09-09T06:20:38;16.10;99.90
40696;DHT22;40425;51.102;17.208;2022-09-09T06:25:39;16.20;99.90
40696;DHT22;40425;51.102;17.208;2022-09-09T06:30:41;16.30;99.90
40696;DHT22;40425;51.102;17.208;2022-09-09T06:35:42;16.50;99.90
40696;DHT22;40425;51.102;17.208;2022-09-09T06:40:57;16.60;99.90
40696;DHT22;40425;51.102;17.208;2022-09-09T06:46:18;16.70;99.90
40696;DHT22;40425;51.102;17.208;2022-09-09T06:51:21;16.90;99.90
40696;DHT22;40425;51.102;17.208;2022-09-09T06:56:31;17.10;99.90
40696;DHT22;40425;51.102;17.208;2022-09-09T07:01:34;17.40;99.90
40696;DHT22;40425;51.102;17.208;2022-09-09T07:06:37;17.70;99.90
40696;DHT22;40425;51.102;17.208;2022-09-09T07:26:55;18.00;99.90
40696;DHT22;40425;51.102;17.208;2022-09-09T07:31:56;18.80;99.90
40696;DHT22;40425;51.102;17.208;2022-09-09T07:36:58;19.00;99.90
40696;DHT22;40425;51.102;17.208;2022-09-09T07:41:59;19.30;99.90
40696;DHT22;40425;51.102;17.208;2022-09-09T07:47:01;19.40;99.90
40696;DHT22;40425;51.102;17.208;2022-09-09T07:52:03;19.50;99.90
40696;DHT22;40425;51.102;17.208;2022-09-09T07:57:04;19.50;99.90
40696;DHT22;40425;51.102;17.208;2022-09-09T08:02:04;19.50;99.90
40696;DHT22;40425;51.102;17.208;2022-09-09T08:07:05;19.70;99.90
40696;DHT22;40425;51.102;17.208;2022-09-09T08:12:07;19.90;99.90
40696;DHT22;40425;51.102;17.208;2022-09-09T08:17:08;20.10;99.90
40696;DHT22;40425;51.102;17.208;2022-09-09T08:22:09;20.30;99.90
40696;DHT22;40425;51.102;17.208;2022-09-09T08:27:10;20.40;99.90
40696;DHT22;40425;51.102;17.208;2022-09-09T08:32:12;20.50;99.90
40696;DHT22;40425;51.102;17.208;2022-09-09T08:37:13;20.50;99.90
40696;DHT22;40425;51.102;17.208;2022-09-09T08:57:59;21.10;99.90
40696;DHT22;40425;51.102;17.208;2022-09-09T09:08:36;21.30;99.90
40696;DHT22;40425;51.102;17.208;2022-09-09T09:13:54;21.40;99.90
40696;DHT22;40425;51.102;17.208;2022-09-09T09:18:59;21.60;99.90
40696;DHT22;40425;51.102;17.208;2022-09-09T09:24:01;21.80;99.90
40696;DHT22;40425;51.102;17.208;2022-09-09T09:29:14;21.80;99.90
40696;DHT22;40425;51.102;17.208;2022-09-09T09:34:15;21.80;99.90
40696;DHT22;40425;51.102;17.208;2022-09-09T09:39:26;21.80;99.90
40696;DHT22;40425;51.102;17.208;2022-09-09T09:44:32;21.80;99.90
40696;DHT22;40425;51.102;17.208;2022-09-09T09:49:33;21.70;99.90
40696;DHT22;40425;51.102;17.208;2022-09-09T09:54:38;21.60;99.90
40696;DHT22;40425;51.102;17.208;2022-09-09T09:59:39;21.40;99.90
40696;DHT22;40425;51.102;17.208;2022-09-09T10:04:40;21.40;99.90
40696;DHT22;40425;51.102;17.208;2022-09-09T10:09:41;21.60;99.90
40696;DHT22;40425;51.102;17.208;2022-09-09T10:56:38;23.10;99.90
40696;DHT22;40425;51.102;17.208;2022-09-09T11:01:49;23.00;99.90
40696;DHT22;40425;51.102;17.208;2022-09-09T11:06:55;22.90;99.90
40696;DHT22;40425;51.102;17.208;2022-09-09T11:11:57;22.70;99.90
40696;DHT22;40425;51.102;17.208;2022-09-09T11:17:04;22.50;99.90
40696;DHT22;40425;51.102;17.208;2022-09-09T11:27:58;22.60;99.90
40696;DHT22;40425;51.102;17.208;2022-09-09T11:38:47;22.70;99.90
40696;DHT22;40425;51.102;17.208;2022-09-09T11:43:52;22.80;99.90
40696;DHT22;40425;51.102;17.208;2022-09-09T11:49:05;22.90;99.90
40696;DHT22;40425;51.102;17.208;2022-09-09T11:54:33;23.00;99.90
40696;DHT22;40425;51.102;17.208;2022-09-09T11:59:36;23.30;99.90
40696;DHT22;40425;51.102;17.208;2022-09-09T12:04:46;23.70;99.90
40696;DHT22;40425;51.102;17.208;2022-09-09T12:10:00;24.00;99.90
40696;DHT22;40425;51.102;17.208;2022-09-09T12:26:51;24.30;99.90
40696;DHT22;40425;51.102;17.208;2022-09-09T12:36:32;24.60;99.90
40696;DHT22;40425;51.102;17.208;2022-09-09T12:41:34;24.90;99.90
40696;DHT22;40425;51.102;17.208;2022-09-09T12:46:36;24.90;99.90
40696;DHT22;40425;51.102;17.208;2022-09-09T12:51:38;24.90;99.90
40696;DHT22;40425;51.102;17.208;2022-09-09T12:56:39;24.60;99.90
40696;DHT22;40425;51.102;17.208;2022-09-09T13:01:40;24.70;99.90
40696;DHT22;40425;51.102;17.208;2022-09-09T13:06:41;24.70;99.90
40696;DHT22;40425;51.102;17.208;2022-09-09T13:11:50;24.60;99.90
40696;DHT22;40425;51.102;17.208;2022-09-09T13:17:03;24.80;99.90
40696;DHT22;40425;51.102;17.208;2022-09-09T13:22:12;24.80;99.90
40696;DHT22;40425;51.102;17.208;2022-09-09T13:27:23;24.60;99.90
40696;DHT22;40425;51.102;17.208;2022-09-09T13:32:26;24.50;99.90
40696;DHT22;40425;51.102;17.208;2022-09-09T13:37:37;24.40;99.90
40696;DHT22;40425;51.102;17.208;2022-09-09T13:42:40;24.40;99.90
40696;DHT22;40425;51.102;17.208;2022-09-09T13:47:46;24.40;99.90
40696;DHT22;40425;51.102;17.208;2022-09-09T13:52:48;24.40;99.90
40696;DHT22;40425;51.102;17.208;2022-09-09T13:58:17;24.10;99.90
40696;DHT22;40425;51.102;17.208;2022-09-09T14:03:22;24.20;99.90
40696;DHT22;40425;51.102;17.208;2022-09-09T14:08:24;24.30;99.90
40696;DHT22;40425;51.102;17.208;2022-09-09T14:13:26;24.40;99.90
40696;DHT22;40425;51.102;17.208;2022-09-09T14:18:26;24.30;99.90
40696;DHT22;40425;51.102;17.208;2022-09-09T14:23:28;24.20;99.90
40696;DHT22;40425;51.102;17.208;2022-09-09T14:28:29;23.90;99.90
40696;DHT22;40425;51.102;17.208;2022-09-09T14:33:30;23.80;99.90
40696;DHT22;40425;51.102;17.208;2022-09-09T14:38:33;23.70;99.90
40696;DHT22;40425;51.102;17.208;2022-09-09T14:43:37;23.60;99.90
40696;DHT22;40425;51.102;17.208;2022-09-09T14:48:38;23.60;99.90
40696;DHT22;40425;51.102;17.208;2022-09-09T14:53:42;23.60;99.90
40696;DHT22;40425;51.102;17.208;2022-09-09T14:58:44;23.60;99.90
40696;DHT22;40425;51.102;17.208;2022-09-09T15:03:50;23.70;99.90
40696;DHT22;40425;51.102;17.208;2022-09-09T15:08:53;23.80;99.90
40696;DHT22;40425;51.102;17.208;2022-09-09T15:13:54;23.80;99.90
40696;DHT22;40425;51.102;17.208;2022-09-09T15:18:58;23.80;99.90
40696;DHT22;40425;51.102;17.208;2022-09-09T15:23:59;23.70;99.90
40696;DHT22;40425;51.102;17.208;2022-09-09T15:29:00;23.70;99.90
40696;DHT22;40425;51.102;17.208;2022-09-09T15:34:05;23.60;99.90
40696;DHT22;40425;51.102;17.208;2022-09-09T15:39:12;23.60;99.90
40696;DHT22;40425;51.102;17.208;2022-09-09T15:44:14;23.50;99.90
40696;DHT22;40425;51.102;17.208;2022-09-09T15:49:21;23.40;99.90
40696;DHT22;40425;51.102;17.208;2022-09-09T15:54:24;23.40;99.90
40696;DHT22;40425;51.102;17.208;2022-09-09T15:59:28;23.30;99.90
40696;DHT22;40425;51.102;17.208;2022-09-09T16:04:29;23.20;99.90
40696;DHT22;40425;51.102;17.208;2022-09-09T16:09:31;23.10;99.90
40696;DHT22;40425;51.102;17.208;2022-09-09T16:14:32;23.00;99.90
40696;DHT22;40425;51.102;17.208;2022-09-09T16:19:36;22.80;99.90
40696;DHT22;40425;51.102;17.208;2022-09-09T16:24:37;22.70;99.90
40696;DHT22;40425;51.102;17.208;2022-09-09T16:29:38;22.60;99.90
40696;DHT22;40425;51.102;17.208;2022-09-09T16:34:39;22.50;99.90
40696;DHT22;40425;51.102;17.208;2022-09-09T16:39:40;22.30;99.90
40696;DHT22;40425;51.102;17.208;2022-09-09T16:44:41;22.20;99.90
40696;DHT22;40425;51.102;17.208;2022-09-09T16:49:42;22.10;99.90
40696;DHT22;40425;51.102;17.208;2022-09-09T16:54:44;21.90;99.90
40696;DHT22;40425;51.102;17.208;2022-09-09T16:59:45;21.70;99.90
40696;DHT22;40425;51.102;17.208;2022-09-09T17:04:46;21.40;99.90
40696;DHT22;40425;51.102;17.208;2022-09-09T17:09:48;21.30;99.90
40696;DHT22;40425;51.102;17.208;2022-09-09T17:14:49;21.20;99.90
40696;DHT22;40425;51.102;17.208;2022-09-09T17:19:51;21.10;99.90
40696;DHT22;40425;51.102;17.208;2022-09-09T17:24:52;21.00;99.90
40696;DHT22;40425;51.102;17.208;2022-09-09T17:29:54;21.00;99.90
40696;DHT22;40425;51.102;17.208;2022-09-09T17:34:57;20.80;99.90
40696;DHT22;40425;51.102;17.208;2022-09-09T17:39:58;20.80;99.90
40696;DHT22;40425;51.102;17.208;2022-09-09T17:44:59;20.60;99.90
40696;DHT22;40425;51.102;17.208;2022-09-09T17:50:00;20.50;99.90
40696;DHT22;40425;51.102;17.208;2022-09-09T17:55:01;20.50;99.90
40696;DHT22;40425;51.102;17.208;2022-09-09T18:00:05;20.40;99.90
40696;DHT22;40425;51.102;17.208;2022-09-09T18:05:07;20.30;99.90
40696;DHT22;40425;51.102;17.208;2022-09-09T18:10:09;20.30;99.90
40696;DHT22;40425;51.102;17.208;2022-09-09T18:15:12;20.20;99.90
40696;DHT22;40425;51.102;17.208;2022-09-09T18:20:13;20.10;99.90
40696;DHT22;40425;51.102;17.208;2022-09-09T18:25:16;20.00;99.90
40696;DHT22;40425;51.102;17.208;2022-09-09T18:30:17;20.00;99.90
40696;DHT22;40425;51.102;17.208;2022-09-09T18:35:19;19.90;99.90
40696;DHT22;40425;51.102;17.208;2022-09-09T18:40:20;19.80;99.90
40696;DHT22;40425;51.102;17.208;2022-09-09T18:45:21;19.80;99.90
40696;DHT22;40425;51.102;17.208;2022-09-09T18:50:23;19.80;99.90
40696;DHT22;40425;51.102;17.208;2022-09-09T18:55:25;19.80;99.90
40696;DHT22;40425;51.102;17.208;2022-09-09T19:00:28;19.60;99.90
40696;DHT22;40425;51.102;17.208;2022-09-09T19:05:31;19.50;99.90
40696;DHT22;40425;51.102;17.208;2022-09-09T19:10:36;19.40;99.90
40696;DHT22;40425;51.102;17.208;2022-09-09T19:15:38;19.30;99.90
40696;DHT22;40425;51.102;17.208;2022-09-09T19:20:41;19.30;99.90
40696;DHT22;40425;51.102;17.208;2022-09-09T19:25:43;19.20;99.90
40696;DHT22;40425;51.102;17.208;2022-09-09T19:30:45;19.10;99.90
40696;DHT22;40425;51.102;17.208;2022-09-09T19:35:57;19.00;99.90
40696;DHT22;40425;51.102;17.208;2022-09-09T19:41:07;19.00;99.90
40696;DHT22;40425;51.102;17.208;2022-09-09T19:46:10;19.00;99.90
40696;DHT22;40425;51.102;17.208;2022-09-09T19:51:15;19.00;99.90
40696;DHT22;40425;51.102;17.208;2022-09-09T19:56:18;18.90;99.90
40696;DHT22;40425;51.102;17.208;2022-09-09T20:01:22;18.90;99.90
40696;DHT22;40425;51.102;17.208;2022-09-09T20:06:27;18.90;99.90
40696;DHT22;40425;51.102;17.208;2022-09-09T20:11:28;18.80;99.90
40696;DHT22;40425;51.102;17.208;2022-09-09T20:16:30;18.80;99.90
40696;DHT22;40425;51.102;17.208;2022-09-09T20:21:37;18.80;99.90
40696;DHT22;40425;51.102;17.208;2022-09-09T20:26:38;18.80;99.90
40696;DHT22;40425;51.102;17.208;2022-09-09T20:31:40;18.80;99.90
40696;DHT22;40425;51.102;17.208;2022-09-09T20:36:42;18.80;99.90
40696;DHT22;40425;51.102;17.208;2022-09-09T20:41:44;18.90;99.90
40696;DHT22;40425;51.102;17.208;2022-09-09T20:46:47;18.90;99.90
40696;DHT22;40425;51.102;17.208;2022-09-09T20:51:50;18.80;99.90
40696;DHT22;40425;51.102;17.208;2022-09-09T20:56:53;18.90;99.90
40696;DHT22;40425;51.102;17.208;2022-09-09T21:01:55;18.80;99.90
40696;DHT22;40425;51.102;17.208;2022-09-09T21:06:56;18.80;99.90
40696;DHT22;40425;51.102;17.208;2022-09-09T21:11:57;18.80;99.90
40696;DHT22;40425;51.102;17.208;2022-09-09T21:16:58;18.80;99.90
40696;DHT22;40425;51.102;17.208;2022-09-09T21:21:59;18.70;99.90
40696;DHT22;40425;51.102;17.208;2022-09-09T21:26:59;18.50;99.90
40696;DHT22;40425;51.102;17.208;2022-09-09T21:32:00;18.30;99.90
40696;DHT22;40425;51.102;17.208;2022-09-09T21:37:03;18.30;99.90
40696;DHT22;40425;51.102;17.208;2022-09-09T21:42:04;18.40;99.90
40696;DHT22;40425;51.102;17.208;2022-09-09T21:47:05;18.50;99.90
40696;DHT22;40425;51.102;17.208;2022-09-09T21:52:05;18.40;99.90
40696;DHT22;40425;51.102;17.208;2022-09-09T21:57:06;18.40;99.90
40696;DHT22;40425;51.102;17.208;2022-09-09T22:02:07;18.20;99.90
40696;DHT22;40425;51.102;17.208;2022-09-09T22:07:10;18.00;99.90
40696;DHT22;40425;51.102;17.208;2022-09-09T22:12:10;17.90;99.90
40696;DHT22;40425;51.102;17.208;2022-09-09T22:17:11;17.90;99.90
40696;DHT22;40425;51.102;17.208;2022-09-09T22:22:12;17.90;99.90
40696;DHT22;40425;51.102;17.208;2022-09-09T22:27:13;17.70;99.90
40696;DHT22;40425;51.102;17.208;2022-09-09T22:32:15;17.70;99.90
40696;DHT22;40425;51.102;17.208;2022-09-09T22:37:16;17.60;99.90
40696;DHT22;40425;51.102;17.208;2022-09-09T22:42:17;17.70;99.90
40696;DHT22;40425;51.102;17.208;2022-09-09T22:47:18;17.80;99.90
40696;DHT22;40425;51.102;17.208;2022-09-09T22:52:19;17.80;99.90
40696;DHT22;40425;51.102;17.208;2022-09-09T22:57:21;17.60;99.90
40696;DHT22;40425;51.102;17.208;2022-09-09T23:02:22;17.50;99.90
40696;DHT22;40425;51.102;17.208;2022-09-09T23:07:22;17.40;99.90
40696;DHT22;40425;51.102;17.208;2022-09-09T23:12:23;17.40;99.90
40696;DHT22;40425;51.102;17.208;2022-09-09T23:17:25;17.40;99.90
40696;DHT22;40425;51.102;17.208;2022-09-09T23:22:26;17.40;99.90
40696;DHT22;40425;51.102;17.208;2022-09-09T23:27:27;17.50;99.90
40696;DHT22;40425;51.102;17.208;2022-09-09T23:32:29;17.50;99.90
40696;DHT22;40425;51.102;17.208;2022-09-09T23:37:32;17.60;99.90
40696;DHT22;40425;51.102;17.208;2022-09-09T23:42:33;17.70;99.90
40696;DHT22;40425;51.102;17.208;2022-09-09T23:47:34;17.70;99.90
40696;DHT22;40425;51.102;17.208;2022-09-09T23:52:35;17.60;99.90
40696;DHT22;40425;51.102;17.208;2022-09-09T23:57:36;17.60;99.90
